Time;durP1;ratioP1;P1;durP2;ratioP2;P2;SDS_P1;SDS_P2;PMS_P1;PMS_P2;Temp;Humidity;BMP_temperature;BMP_pressure;BME280_temperature;BME280_humidity;BME280_pressure;Samples;Min_cycle;Max_cycle;Signal;HPM_P1;HPM_P2
2021/08/06 00:01:18;;;;;;;4.20;1.83;;;18.90;99.90;;;;;;5031024;28;20072;-53
2021/08/06 00:03:44;;;;;;;2.40;1.80;;;18.80;99.90;;;;;;5031183;28;20084;-53
2021/08/06 00:06:10;;;;;;;3.00;2.10;;;18.60;99.90;;;;;;5029702;28;20474;-51
2021/08/06 00:08:37;;;;;;;3.53;2.20;;;18.20;99.90;;;;;;5030963;28;20383;-52
2021/08/06 00:11:04;;;;;;;4.10;2.60;;;18.00;99.90;;;;;;5031082;28;20061;-55
2021/08/06 00:13:30;;;;;;;3.45;2.47;;;17.80;99.90;;;;;;5031053;28;20037;-57
2021/08/06 00:15:59;;;;;;;4.05;2.80;;;17.60;99.90;;;;;;5030884;28;20053;-56
2021/08/06 00:18:25;;;;;;;2.92;2.38;;;17.50;99.90;;;;;;5031071;28;20429;-57
2021/08/06 00:20:52;;;;;;;6.78;2.72;;;17.50;99.90;;;;;;5030838;28;20022;-53
2021/08/06 00:23:18;;;;;;;2.90;2.42;;;17.40;99.90;;;;;;5030682;28;20137;-52
2021/08/06 00:25:44;;;;;;;3.40;2.15;;;17.30;99.90;;;;;;5034176;28;20371;-53
2021/08/06 00:28:10;;;;;;;2.70;2.15;;;17.30;99.90;;;;;;5034707;28;20075;-53
2021/08/06 00:30:36;;;;;;;3.03;2.38;;;17.40;99.90;;;;;;5034920;28;20036;-52
2021/08/06 00:33:02;;;;;;;4.57;2.60;;;17.40;99.90;;;;;;5033406;28;20029;-54
2021/08/06 00:35:28;;;;;;;2.85;2.55;;;17.40;99.90;;;;;;5034848;28;20037;-54
2021/08/06 00:37:53;;;;;;;4.38;2.70;;;17.40;99.90;;;;;;5034821;28;20030;-54
2021/08/06 00:40:22;;;;;;;2.63;2.42;;;17.50;99.90;;;;;;5034668;28;20466;-54
2021/08/06 00:42:48;;;;;;;5.07;2.65;;;17.50;99.90;;;;;;5034740;28;20072;-53
2021/08/06 00:45:14;;;;;;;3.28;2.65;;;17.50;99.90;;;;;;5033513;28;20117;-53
2021/08/06 00:47:40;;;;;;;4.30;2.53;;;17.50;99.90;;;;;;5034554;28;20092;-53
2021/08/06 00:50:07;;;;;;;4.55;2.70;;;17.50;99.90;;;;;;5034534;28;20025;-53
2021/08/06 00:52:33;;;;;;;4.38;2.50;;;17.50;99.90;;;;;;5034304;28;20126;-53
2021/08/06 00:54:59;;;;;;;3.58;2.60;;;17.50;99.90;;;;;;5034564;28;20498;-53
2021/08/06 00:57:25;;;;;;;3.40;3.10;;;17.50;99.90;;;;;;5034383;28;20022;-53
2021/08/06 00:59:50;;;;;;;6.28;3.20;;;17.40;99.90;;;;;;5034336;28;20041;-53
2021/08/06 01:02:35;;;;;;;4.70;3.35;;;17.40;99.90;;;;;;5034296;28;20115;-53
2021/08/06 01:05:09;;;;;;;5.35;2.78;;;17.40;99.90;;;;;;5034481;28;20461;-54
2021/08/06 01:07:52;;;;;;;4.72;3.17;;;17.30;99.90;;;;;;5034246;28;20029;-54
2021/08/06 01:10:22;;;;;;;5.00;3.30;;;17.30;99.90;;;;;;5034305;28;20148;-54
2021/08/06 01:12:57;;;;;;;4.28;3.58;;;17.30;99.90;;;;;;5034041;28;20083;-53
2021/08/06 01:15:23;;;;;;;4.00;3.60;;;17.30;99.90;;;;;;5034269;28;20025;-54
2021/08/06 01:17:50;;;;;;;7.00;3.20;;;17.20;99.90;;;;;;5034069;28;20531;-53
2021/08/06 01:20:28;;;;;;;4.43;3.60;;;17.30;99.90;;;;;;5032601;28;20021;-53
2021/08/06 01:23:15;;;;;;;6.13;3.65;;;17.30;99.90;;;;;;5034057;28;20026;-53
2021/08/06 01:25:50;;;;;;;6.25;3.15;;;17.30;99.90;;;;;;5033910;28;20032;-53
2021/08/06 01:28:20;;;;;;;3.90;3.20;;;17.30;99.90;;;;;;5033791;28;20340;-53
2021/08/06 01:30:47;;;;;;;6.38;3.58;;;17.30;99.90;;;;;;5033741;28;20037;-54
2021/08/06 01:33:14;;;;;;;3.65;3.35;;;17.40;99.90;;;;;;5033928;28;20405;-53
2021/08/06 01:35:39;;;;;;;3.80;2.85;;;17.30;99.90;;;;;;5032199;28;20025;-54
2021/08/06 01:38:05;;;;;;;5.38;3.65;;;17.20;99.90;;;;;;5033685;28;20029;-53
2021/08/06 01:40:43;;;;;;;4.00;3.35;;;17.30;99.90;;;;;;5033828;28;20025;-53
2021/08/06 01:43:29;;;;;;;4.15;3.13;;;17.30;99.90;;;;;;5033502;28;20045;-53
2021/08/06 01:46:19;;;;;;;3.92;2.83;;;17.40;99.90;;;;;;5032552;28;20084;-53
2021/08/06 01:48:48;;;;;;;4.13;3.08;;;17.30;99.90;;;;;;5033171;28;20103;-53
2021/08/06 01:51:15;;;;;;;3.75;2.63;;;17.50;99.90;;;;;;5033423;28;20048;-52
2021/08/06 01:53:47;;;;;;;4.47;2.50;;;17.50;99.90;;;;;;5033934;28;20025;-53
2021/08/06 01:56:18;;;;;;;4.32;2.47;;;17.50;99.90;;;;;;5033619;28;20036;-54
2021/08/06 01:58:47;;;;;;;4.45;3.15;;;17.60;99.90;;;;;;5032129;28;20025;-53
2021/08/06 02:01:13;;;;;;;3.10;2.58;;;17.50;99.90;;;;;;5033445;28;20537;-54
2021/08/06 02:03:41;;;;;;;2.95;2.72;;;17.50;99.90;;;;;;5033327;28;20104;-54
2021/08/06 02:06:08;;;;;;;3.67;2.83;;;17.40;99.90;;;;;;5033228;28;20041;-55
2021/08/06 02:08:38;;;;;;;3.80;2.95;;;17.40;99.90;;;;;;5033088;28;20026;-55
2021/08/06 02:11:04;;;;;;;3.72;2.90;;;17.30;99.90;;;;;;5033138;28;20044;-55
2021/08/06 02:13:29;;;;;;;3.40;3.10;;;17.30;99.90;;;;;;5032995;28;20021;-56
2021/08/06 02:15:55;;;;;;;3.47;2.63;;;17.40;99.90;;;;;;5032984;28;20053;-56
2021/08/06 02:18:23;;;;;;;3.63;3.33;;;17.30;99.90;;;;;;5032990;28;20026;-55
2021/08/06 02:20:53;;;;;;;3.65;2.70;;;17.30;99.90;;;;;;5032832;28;20021;-55
2021/08/06 02:23:20;;;;;;;3.72;2.90;;;17.30;99.90;;;;;;5032880;28;20375;-55
2021/08/06 02:25:46;;;;;;;4.22;2.90;;;17.40;99.90;;;;;;5032998;28;20556;-55
2021/08/06 02:28:12;;;;;;;4.53;3.38;;;17.40;99.90;;;;;;5032740;28;20033;-60
2021/08/06 02:30:39;;;;;;;5.43;3.17;;;17.40;99.90;;;;;;5033019;28;20029;-61
2021/08/06 02:33:05;;;;;;;3.53;2.97;;;17.40;99.90;;;;;;5032441;28;20025;-59
2021/08/06 02:35:30;;;;;;;4.15;2.67;;;17.30;99.90;;;;;;5032865;28;20524;-57
2021/08/06 02:37:56;;;;;;;2.67;2.42;;;17.30;99.90;;;;;;5032541;28;20022;-59
2021/08/06 02:40:22;;;;;;;2.72;2.40;;;17.30;99.90;;;;;;5032784;28;20469;-60
2021/08/06 02:42:48;;;;;;;3.15;2.35;;;17.20;99.90;;;;;;5032502;28;20033;-57
2021/08/06 02:45:14;;;;;;;6.50;2.83;;;17.10;99.90;;;;;;5032577;28;20107;-59
2021/08/06 02:47:40;;;;;;;3.33;2.88;;;17.10;99.90;;;;;;5032379;28;20060;-60
2021/08/06 02:50:06;;;;;;;5.15;2.70;;;17.10;99.90;;;;;;5032203;28;20033;-61
2021/08/06 02:52:32;;;;;;;3.55;2.50;;;17.00;99.90;;;;;;5032031;28;20129;-57
2021/08/06 02:54:58;;;;;;;6.47;3.15;;;17.00;99.90;;;;;;5031127;28;20105;-60
2021/08/06 02:57:24;;;;;;;3.95;3.15;;;16.90;99.90;;;;;;5031021;28;20029;-59
2021/08/06 02:59:51;;;;;;;3.65;2.78;;;16.80;99.90;;;;;;5032119;28;20021;-60
2021/08/06 03:02:17;;;;;;;3.88;3.00;;;16.80;99.90;;;;;;5032176;28;20083;-58
2021/08/06 03:04:42;;;;;;;2.95;2.60;;;16.70;99.90;;;;;;5032133;28;20411;-58
2021/08/06 03:07:08;;;;;;;5.53;2.72;;;16.70;99.90;;;;;;5031883;28;20538;-55
2021/08/06 03:09:34;;;;;;;3.75;2.92;;;16.70;99.90;;;;;;5032529;28;20048;-55
2021/08/06 03:11:59;;;;;;;4.32;2.83;;;16.60;99.90;;;;;;5031782;28;20037;-55
2021/08/06 03:14:25;;;;;;;3.15;2.83;;;16.60;99.90;;;;;;5030750;28;20040;-55
2021/08/06 03:16:51;;;;;;;6.82;2.92;;;16.50;99.90;;;;;;5031658;28;20039;-55
2021/08/06 03:19:16;;;;;;;3.25;2.90;;;16.50;99.90;;;;;;5030348;28;20025;-55
2021/08/06 03:21:42;;;;;;;3.95;2.75;;;16.50;99.90;;;;;;5030479;28;20063;-55
2021/08/06 03:24:07;;;;;;;3.20;2.50;;;16.50;99.90;;;;;;5031723;28;20022;-55
2021/08/06 03:26:33;;;;;;;3.72;2.85;;;16.40;99.90;;;;;;5031727;28;20025;-55
2021/08/06 03:28:59;;;;;;;3.70;2.72;;;16.40;99.90;;;;;;5031634;28;20048;-55
2021/08/06 03:31:24;;;;;;;4.55;2.83;;;16.40;99.90;;;;;;5031554;28;20497;-55
2021/08/06 03:33:50;;;;;;;3.30;2.00;;;16.50;99.90;;;;;;5031523;28;20061;-55
2021/08/06 03:36:16;;;;;;;2.67;2.33;;;16.40;99.90;;;;;;5031413;28;20025;-55
2021/08/06 03:38:42;;;;;;;3.47;2.55;;;16.40;99.90;;;;;;5031564;28;20025;-55
2021/08/06 03:41:07;;;;;;;3.42;2.17;;;16.50;99.90;;;;;;5031493;28;20033;-55
2021/08/06 03:43:33;;;;;;;2.75;2.45;;;16.50;99.90;;;;;;5030202;28;20030;-55
2021/08/06 03:45:59;;;;;;;3.05;2.40;;;16.50;99.90;;;;;;5031383;28;20018;-55
2021/08/06 03:48:24;;;;;;;2.50;2.08;;;16.50;99.90;;;;;;5031261;28;20572;-55
2021/08/06 03:50:50;;;;;;;2.92;2.33;;;16.50;99.90;;;;;;5029646;28;20124;-55
2021/08/06 03:53:16;;;;;;;2.90;2.30;;;16.50;99.90;;;;;;5031020;28;20065;-55
2021/08/06 03:55:43;;;;;;;3.13;2.30;;;16.50;99.90;;;;;;5031417;28;20485;-55
2021/08/06 03:58:09;;;;;;;2.40;1.90;;;16.50;99.90;;;;;;5031358;28;20367;-55
2021/08/06 04:00:38;;;;;;;2.40;2.20;;;16.50;99.90;;;;;;5030720;28;20022;-55
2021/08/06 04:03:08;;;;;;;2.03;1.80;;;16.60;99.90;;;;;;5031499;28;20382;-55
2021/08/06 04:05:34;;;;;;;2.83;2.30;;;16.50;99.90;;;;;;5031172;28;20029;-54
2021/08/06 04:08:05;;;;;;;6.75;2.22;;;16.50;99.90;;;;;;5031244;28;20029;-54
2021/08/06 04:10:30;;;;;;;4.47;2.05;;;16.50;99.90;;;;;;5031069;28;20516;-55
2021/08/06 04:12:56;;;;;;;3.25;2.22;;;16.50;99.90;;;;;;5030938;28;20036;-54
2021/08/06 04:15:22;;;;;;;4.60;2.35;;;16.40;99.90;;;;;;5029849;28;20033;-54
2021/08/06 04:17:47;;;;;;;2.40;2.20;;;16.40;99.90;;;;;;5030991;28;20022;-54
2021/08/06 04:20:14;;;;;;;3.13;2.35;;;16.40;99.90;;;;;;5030850;28;20018;-54
2021/08/06 04:22:40;;;;;;;3.88;2.67;;;16.50;99.90;;;;;;5031002;28;20022;-54
2021/08/06 04:25:06;;;;;;;4.18;2.97;;;16.50;99.90;;;;;;5030978;28;20046;-54
2021/08/06 04:27:32;;;;;;;5.20;2.92;;;16.50;99.90;;;;;;5030635;28;20061;-54
2021/08/06 04:29:57;;;;;;;6.22;3.13;;;16.50;99.90;;;;;;5030824;28;20085;-54
2021/08/06 04:32:23;;;;;;;6.25;3.72;;;16.50;99.90;;;;;;5030872;28;20450;-54
2021/08/06 04:34:49;;;;;;;7.32;3.83;;;16.50;99.90;;;;;;5030840;28;20022;-53
2021/08/06 04:37:14;;;;;;;5.97;4.63;;;16.50;99.90;;;;;;5031009;28;20462;-53
2021/08/06 04:39:40;;;;;;;6.80;5.00;;;16.50;99.90;;;;;;5030815;28;20025;-54
2021/08/06 04:42:06;;;;;;;10.20;4.85;;;16.50;99.90;;;;;;5030647;28;20033;-54
2021/08/06 04:44:36;;;;;;;11.38;4.63;;;16.60;99.90;;;;;;5030859;28;20018;-54
2021/08/06 04:47:03;;;;;;;8.77;4.55;;;16.60;99.90;;;;;;5030685;28;20362;-53
2021/08/06 04:49:28;;;;;;;10.65;4.30;;;16.60;99.90;;;;;;5030858;28;20036;-54
2021/08/06 04:51:54;;;;;;;8.63;4.50;;;16.50;99.90;;;;;;5030301;28;20057;-54
2021/08/06 04:54:19;;;;;;;6.43;4.28;;;16.50;99.90;;;;;;5030878;28;20489;-53
2021/08/06 04:56:45;;;;;;;8.38;4.53;;;16.60;99.90;;;;;;5030917;28;20076;-54
2021/08/06 04:59:11;;;;;;;9.40;4.22;;;16.60;99.90;;;;;;5030577;28;20029;-53
2021/08/06 05:01:36;;;;;;;7.40;3.45;;;16.60;99.90;;;;;;5030656;28;20040;-53
2021/08/06 05:04:02;;;;;;;8.55;3.95;;;16.60;99.90;;;;;;5030541;28;20474;-53
2021/08/06 05:06:28;;;;;;;7.30;4.30;;;16.60;99.90;;;;;;5030841;28;20389;-53
2021/08/06 05:08:53;;;;;;;9.07;3.80;;;16.60;99.90;;;;;;5030558;28;20406;-53
2021/08/06 05:11:19;;;;;;;7.80;3.63;;;16.60;99.90;;;;;;5031358;28;20578;-54
2021/08/06 05:13:45;;;;;;;6.05;3.80;;;16.70;99.90;;;;;;5034274;28;20034;-54
2021/08/06 05:16:10;;;;;;;8.43;3.78;;;16.80;99.90;;;;;;5034131;28;20022;-53
2021/08/06 05:18:38;;;;;;;7.32;3.72;;;16.80;99.90;;;;;;5033985;28;20105;-53
2021/08/06 05:21:04;;;;;;;7.50;3.42;;;16.80;99.90;;;;;;5033893;28;20033;-53
2021/08/06 05:23:30;;;;;;;7.10;3.15;;;16.80;99.90;;;;;;5033969;28;20029;-53
2021/08/06 05:25:55;;;;;;;9.30;3.65;;;16.80;99.90;;;;;;5032668;28;20079;-53
2021/08/06 05:28:21;;;;;;;13.15;4.10;;;16.80;99.90;;;;;;5033925;28;20057;-53
2021/08/06 05:30:47;;;;;;;7.55;3.05;;;16.80;99.90;;;;;;5033907;28;20064;-53
2021/08/06 05:33:12;;;;;;;7.18;3.28;;;16.80;99.90;;;;;;5033569;28;20071;-54
2021/08/06 05:35:39;;;;;;;5.03;2.97;;;16.80;99.90;;;;;;5033856;28;20018;-54
2021/08/06 05:38:05;;;;;;;6.93;3.22;;;16.80;99.90;;;;;;5033659;28;20022;-54
2021/08/06 05:40:30;;;;;;;6.00;3.22;;;16.80;99.90;;;;;;5033513;28;20359;-54
2021/08/06 05:42:56;;;;;;;5.57;3.20;;;16.90;99.90;;;;;;5033485;28;20033;-54
2021/08/06 05:45:23;;;;;;;6.97;3.55;;;16.80;99.90;;;;;;5034008;28;20022;-54
2021/08/06 05:47:51;;;;;;;9.65;3.42;;;16.80;99.90;;;;;;5033362;28;20063;-54
2021/08/06 05:50:18;;;;;;;11.70;3.85;;;16.90;99.90;;;;;;5033200;28;20025;-54
2021/08/06 05:52:45;;;;;;;8.50;3.42;;;16.90;99.90;;;;;;5033481;28;20593;-54
2021/08/06 05:55:12;;;;;;;5.30;3.58;;;17.00;99.90;;;;;;5033732;28;20021;-54
2021/08/06 05:57:38;;;;;;;8.77;3.30;;;17.20;99.90;;;;;;5032286;28;20049;-54
2021/08/06 06:00:05;;;;;;;7.00;3.20;;;17.20;99.90;;;;;;5033254;28;20028;-54
2021/08/06 06:02:31;;;;;;;9.98;3.20;;;17.20;99.90;;;;;;5033122;28;20033;-53
2021/08/06 06:04:57;;;;;;;7.00;3.22;;;17.30;99.90;;;;;;5033207;28;20543;-54
2021/08/06 06:07:22;;;;;;;5.88;3.70;;;17.40;99.90;;;;;;5033086;28;20030;-54
2021/08/06 06:09:48;;;;;;;6.57;3.25;;;17.50;99.90;;;;;;5033083;28;20381;-54
2021/08/06 06:12:13;;;;;;;5.75;3.10;;;17.60;99.90;;;;;;5032962;28;20398;-53
2021/08/06 06:14:39;;;;;;;6.82;2.97;;;17.60;99.90;;;;;;5033105;28;20474;-54
2021/08/06 06:17:05;;;;;;;5.25;2.60;;;17.50;99.90;;;;;;5033326;28;20026;-54
2021/08/06 06:19:31;;;;;;;9.40;3.85;;;17.50;99.90;;;;;;5032816;28;20361;-54
2021/08/06 06:21:56;;;;;;;9.45;3.60;;;17.50;99.90;;;;;;5032743;28;20051;-54
2021/08/06 06:24:22;;;;;;;8.88;3.67;;;17.40;99.90;;;;;;5032945;28;20381;-54
2021/08/06 06:26:47;;;;;;;6.50;3.00;;;17.40;99.90;;;;;;5031414;28;20056;-54
2021/08/06 06:29:13;;;;;;;8.45;3.70;;;17.50;99.90;;;;;;5032737;28;20032;-54
2021/08/06 06:31:39;;;;;;;10.35;3.53;;;17.40;99.90;;;;;;5031347;28;20029;-54
2021/08/06 06:34:04;;;;;;;7.18;3.40;;;17.40;99.90;;;;;;5032468;28;20033;-54
2021/08/06 06:36:30;;;;;;;5.93;2.33;;;17.50;99.90;;;;;;5032391;28;20025;-54
2021/08/06 06:38:56;;;;;;;6.53;2.78;;;17.60;99.90;;;;;;5032441;28;20096;-54
2021/08/06 06:41:21;;;;;;;10.25;2.88;;;17.60;99.90;;;;;;5032521;28;20026;-54
2021/08/06 06:43:47;;;;;;;5.07;2.40;;;17.70;99.90;;;;;;5032754;28;20041;-54
2021/08/06 06:46:13;;;;;;;6.57;2.53;;;17.80;99.90;;;;;;5032297;28;20048;-54
2021/08/06 06:48:38;;;;;;;7.47;2.53;;;17.80;99.90;;;;;;5032172;28;20030;-54
2021/08/06 06:51:04;;;;;;;5.70;2.63;;;17.90;99.90;;;;;;5031934;28;20053;-53
2021/08/06 06:53:30;;;;;;;4.82;2.28;;;17.90;99.90;;;;;;5030907;28;20470;-54
2021/08/06 06:55:55;;;;;;;4.70;2.28;;;18.00;99.90;;;;;;5030843;28;20057;-54
2021/08/06 06:58:22;;;;;;;7.30;2.70;;;17.90;99.90;;;;;;5032119;28;20025;-54
2021/08/06 07:00:48;;;;;;;7.18;1.95;;;18.00;99.90;;;;;;5030727;28;20449;-54
2021/08/06 07:03:14;;;;;;;5.45;2.15;;;18.10;99.90;;;;;;5031963;28;20368;-53
2021/08/06 07:05:40;;;;;;;7.28;2.10;;;18.20;99.90;;;;;;5031101;28;20083;-53
2021/08/06 07:08:05;;;;;;;6.35;2.40;;;18.10;99.90;;;;;;5030713;28;20061;-53
2021/08/06 07:10:31;;;;;;;7.43;2.30;;;18.10;99.90;;;;;;5031975;28;20446;-54
2021/08/06 07:12:58;;;;;;;4.05;2.15;;;18.10;99.90;;;;;;5031732;28;20083;-55
2021/08/06 07:15:24;;;;;;;7.32;1.90;;;19.20;99.90;;;;;;5031788;28;20722;-54
2021/08/06 07:17:50;;;;;;;5.10;2.10;;;19.50;99.90;;;;;;5030516;28;20032;-54
2021/08/06 07:20:17;;;;;;;6.07;1.80;;;19.30;99.90;;;;;;5031865;28;20454;-54
2021/08/06 07:22:44;;;;;;;4.03;1.83;;;19.50;99.90;;;;;;5031881;28;20087;-53
2021/08/06 07:25:11;;;;;;;5.97;2.22;;;19.40;99.90;;;;;;5031749;28;20382;-53
2021/08/06 07:27:38;;;;;;;4.63;2.08;;;19.20;99.90;;;;;;5031803;28;20055;-54
2021/08/06 07:30:05;;;;;;;5.38;2.05;;;19.00;99.90;;;;;;5031680;28;20158;-54
2021/08/06 07:32:30;;;;;;;2.67;2.20;;;18.60;99.90;;;;;;5031403;28;20030;-53
2021/08/06 07:34:56;;;;;;;3.13;2.10;;;18.20;99.90;;;;;;5031287;28;20040;-54
2021/08/06 07:37:22;;;;;;;5.47;2.40;;;18.20;99.90;;;;;;5031526;28;20291;-53
2021/08/06 07:39:49;;;;;;;5.40;2.50;;;18.50;99.90;;;;;;5031497;28;20029;-54
2021/08/06 07:42:15;;;;;;;7.22;2.58;;;18.60;99.90;;;;;;5031552;28;20025;-54
2021/08/06 07:44:41;;;;;;;8.45;2.47;;;18.50;99.90;;;;;;5031463;28;20203;-53
2021/08/06 07:47:07;;;;;;;6.18;2.22;;;18.40;99.90;;;;;;5031421;28;20452;-54
2021/08/06 07:49:33;;;;;;;4.07;2.15;;;18.30;99.90;;;;;;5031253;28;20110;-54
2021/08/06 07:51:58;;;;;;;7.85;2.55;;;18.20;99.90;;;;;;5029620;28;20046;-54
2021/08/06 07:54:25;;;;;;;3.55;2.10;;;18.30;99.90;;;;;;5031319;28;20049;-54
2021/08/06 07:56:51;;;;;;;4.45;2.28;;;18.40;99.90;;;;;;5031331;28;20399;-54
2021/08/06 07:59:19;;;;;;;4.07;2.05;;;18.60;99.90;;;;;;5031059;28;20025;-54
2021/08/06 08:01:45;;;;;;;3.88;1.98;;;18.80;99.90;;;;;;5030936;28;20425;-54
2021/08/06 08:04:11;;;;;;;3.95;2.50;;;18.70;99.90;;;;;;5030037;28;20084;-53
2021/08/06 08:06:37;;;;;;;6.13;1.95;;;18.60;99.90;;;;;;5030944;28;20474;-55
2021/08/06 08:09:02;;;;;;;4.00;1.90;;;18.50;99.90;;;;;;5031109;28;20032;-54
2021/08/06 08:11:28;;;;;;;3.47;1.67;;;18.60;99.90;;;;;;5030879;28;20033;-53
2021/08/06 08:13:53;;;;;;;3.90;1.67;;;19.40;99.90;;;;;;5029742;28;20025;-54
2021/08/06 08:16:19;;;;;;;3.30;1.80;;;19.40;99.90;;;;;;5029796;28;20051;-54
2021/08/06 08:18:45;;;;;;;4.90;1.58;;;20.00;99.90;;;;;;5031069;28;20462;-54
2021/08/06 08:21:11;;;;;;;3.00;1.60;;;20.90;99.90;;;;;;5031204;28;20470;-54
2021/08/06 08:23:37;;;;;;;2.67;1.38;;;21.20;99.90;;;;;;5031293;28;20021;-53
2021/08/06 08:26:03;;;;;;;3.20;1.70;;;20.70;99.90;;;;;;5030831;28;20386;-54
2021/08/06 08:28:29;;;;;;;5.90;1.65;;;20.00;99.90;;;;;;5030991;28;20465;-53
2021/08/06 08:30:54;;;;;;;3.60;1.70;;;19.80;99.90;;;;;;5030746;28;20028;-54
2021/08/06 08:33:21;;;;;;;4.30;1.85;;;19.60;99.90;;;;;;5030718;28;20056;-53
2021/08/06 08:35:48;;;;;;;3.55;1.77;;;19.20;99.90;;;;;;5030724;28;20477;-54
2021/08/06 08:38:14;;;;;;;4.63;1.83;;;18.90;99.90;;;;;;5030796;28;20029;-55
2021/08/06 08:40:40;;;;;;;3.65;1.70;;;18.90;99.90;;;;;;5030756;28;20025;-53
2021/08/06 08:43:07;;;;;;;3.50;1.55;;;18.80;99.90;;;;;;5030869;28;20022;-54
2021/08/06 08:45:35;;;;;;;3.72;1.52;;;18.80;99.90;;;;;;5031858;28;20132;-53
2021/08/06 08:48:00;;;;;;;4.55;1.80;;;18.90;99.90;;;;;;5034558;28;20088;-54
2021/08/06 08:50:27;;;;;;;7.03;1.65;;;18.90;99.90;;;;;;5034502;28;20037;-53
2021/08/06 08:52:53;;;;;;;4.40;1.77;;;19.00;99.90;;;;;;5034609;28;20037;-53
2021/08/06 08:55:19;;;;;;;3.25;1.40;;;19.00;99.90;;;;;;5034847;28;20025;-54
2021/08/06 08:57:45;;;;;;;7.03;1.55;;;19.00;99.90;;;;;;5034716;28;20104;-58
2021/08/06 09:00:13;;;;;;;4.85;1.55;;;18.20;99.90;;;;;;5034651;28;20028;-60
2021/08/06 09:02:40;;;;;;;5.07;2.03;;;17.80;99.90;;;;;;5033363;28;20030;-57
2021/08/06 09:05:23;;;;;;;4.63;1.90;;;17.50;99.90;;;;;;5034425;28;20025;-59
2021/08/06 09:07:49;;;;;;;3.75;1.48;;;17.40;99.90;;;;;;5033148;28;20034;-55
2021/08/06 09:10:18;;;;;;;3.15;1.80;;;17.30;99.90;;;;;;5034159;28;20108;-55
2021/08/06 09:12:59;;;;;;;2.13;1.60;;;17.50;99.90;;;;;;5034196;28;20490;-55
2021/08/06 09:15:45;;;;;;;3.47;1.50;;;17.80;99.90;;;;;;5034713;28;20021;-54
2021/08/06 09:18:31;;;;;;;3.00;1.85;;;18.30;99.90;;;;;;5034091;28;20052;-55
2021/08/06 09:21:03;;;;;;;2.75;1.25;;;18.50;99.90;;;;;;5032884;28;20482;-55
2021/08/06 09:23:47;;;;;;;3.78;1.42;;;18.70;99.90;;;;;;5034095;28;20025;-55
2021/08/06 09:26:27;;;;;;;3.00;1.30;;;18.60;99.90;;;;;;5033838;28;20033;-55
2021/08/06 09:29:03;;;;;;;3.88;1.60;;;18.60;99.90;;;;;;5033693;28;20022;-55
2021/08/06 09:31:31;;;;;;;4.47;1.67;;;18.40;99.90;;;;;;5033766;28;20660;-54
2021/08/06 09:34:18;;;;;;;4.20;1.80;;;18.10;99.90;;;;;;5033936;28;20028;-55
2021/08/06 09:36:55;;;;;;;5.88;1.60;;;18.20;99.90;;;;;;5033803;28;20033;-55
2021/08/06 09:39:22;;;;;;;3.92;1.83;;;18.30;99.90;;;;;;5032520;28;20025;-55
2021/08/06 09:41:48;;;;;;;4.82;1.95;;;18.30;99.90;;;;;;5033605;28;20039;-55
2021/08/06 09:44:22;;;;;;;3.90;1.33;;;18.40;99.90;;;;;;5033735;28;20084;-55
2021/08/06 09:46:49;;;;;;;5.22;1.60;;;18.60;99.90;;;;;;5032170;28;20037;-56
2021/08/06 09:49:18;;;;;;;3.75;1.30;;;18.50;99.90;;;;;;5033430;28;20041;-57
2021/08/06 09:51:45;;;;;;;3.17;1.50;;;18.60;99.90;;;;;;5032420;28;20061;-56
2021/08/06 09:54:21;;;;;;;3.13;1.58;;;18.70;99.90;;;;;;5033699;28;20032;-56
2021/08/06 09:56:48;;;;;;;4.32;1.60;;;18.70;99.90;;;;;;5032515;28;20123;-55
2021/08/06 09:59:29;;;;;;;3.17;1.60;;;18.70;99.90;;;;;;5033160;28;20022;-55
2021/08/06 10:02:11;;;;;;;4.13;1.67;;;18.60;99.90;;;;;;5033176;28;20075;-55
2021/08/06 10:04:37;;;;;;;1.88;1.40;;;18.70;99.90;;;;;;5033352;28;20026;-56
2021/08/06 10:07:04;;;;;;;3.55;1.50;;;18.90;99.90;;;;;;5033109;28;20115;-56
2021/08/06 10:09:29;;;;;;;3.03;1.40;;;19.10;99.90;;;;;;5033032;28;20029;-54
2021/08/06 10:11:55;;;;;;;3.30;1.52;;;19.20;99.90;;;;;;5032901;28;20034;-55
2021/08/06 10:14:21;;;;;;;6.55;1.45;;;19.60;99.90;;;;;;5033255;28;20029;-55
2021/08/06 10:16:47;;;;;;;3.92;1.40;;;20.00;99.90;;;;;;5033146;28;20022;-55
2021/08/06 10:19:15;;;;;;;5.88;1.35;;;20.30;99.90;;;;;;5032999;28;20033;-55
2021/08/06 10:21:42;;;;;;;9.27;2.00;;;19.80;99.90;;;;;;5032799;28;20167;-54
2021/08/06 10:24:13;;;;;;;3.90;1.65;;;19.70;99.90;;;;;;5033338;28;20456;-54
2021/08/06 10:26:45;;;;;;;3.60;1.23;;;19.70;99.90;;;;;;5032800;28;20381;-54
2021/08/06 10:29:11;;;;;;;;;;;19.70;99.90;;;;;;5031855;28;20128;-54
2021/08/06 10:31:37;;;;;;;4.53;1.77;;;19.50;99.90;;;;;;5032731;28;19987;-53
2021/08/06 10:34:08;;;;;;;2.22;1.00;;;19.40;99.90;;;;;;5032505;28;20051;-54
2021/08/06 10:36:50;;;;;;;2.58;1.33;;;19.40;99.90;;;;;;5032440;28;20032;-54
2021/08/06 10:39:31;;;;;;;2.72;1.10;;;19.50;99.90;;;;;;5032394;28;20025;-54
2021/08/06 10:41:58;;;;;;;3.88;1.02;;;19.60;99.90;;;;;;5032216;28;20152;-54
2021/08/06 10:44:24;;;;;;;2.65;1.10;;;20.00;99.90;;;;;;5032493;28;20025;-54
2021/08/06 10:47:06;;;;;;;3.75;1.00;;;20.30;99.90;;;;;;5032220;28;20348;-54
2021/08/06 10:49:32;;;;;;;3.00;1.27;;;20.40;99.90;;;;;;5032204;28;20040;-54
2021/08/06 10:52:13;;;;;;;3.40;1.20;;;20.20;99.90;;;;;;5031880;28;20061;-54
2021/08/06 10:54:38;;;;;;;4.43;1.52;;;20.10;99.90;;;;;;5032402;28;20533;-55
2021/08/06 10:57:17;;;;;;;2.90;1.10;;;19.90;99.90;;;;;;5030973;28;20112;-54
2021/08/06 10:59:44;;;;;;;3.13;1.05;;;19.60;99.90;;;;;;5032033;28;20367;-53
2021/08/06 11:02:43;;;;;;;1.85;1.20;;;19.50;99.90;;;;;;5032240;28;20022;-53
2021/08/06 11:05:35;;;;;;;1.52;0.88;;;19.80;99.90;;;;;;5031002;28;20144;-54
2021/08/06 11:08:38;;;;;;;2.03;0.90;;;20.40;99.90;;;;;;5032100;28;20101;-54
2021/08/06 11:11:04;;;;;;;2.45;1.00;;;20.50;99.90;;;;;;5032073;28;20069;-54
2021/08/06 11:13:32;;;;;;;1.35;0.70;;;21.00;99.90;;;;;;5032182;28;20056;-53
2021/08/06 11:16:08;;;;;;;2.63;0.60;;;21.40;99.90;;;;;;5032129;28;20440;-54
2021/08/06 11:18:40;;;;;;;4.50;0.80;;;21.00;99.90;;;;;;5032133;28;20029;-54
2021/08/06 11:21:06;;;;;;;3.33;0.90;;;20.50;99.90;;;;;;5030746;28;20104;-53
2021/08/06 11:23:32;;;;;;;2.85;1.00;;;20.70;99.90;;;;;;5031944;28;20502;-54
2021/08/06 11:26:09;;;;;;;2.92;0.68;;;21.20;99.90;;;;;;5031856;28;20116;-54
2021/08/06 11:28:34;;;;;;;1.30;0.60;;;21.60;99.90;;;;;;5031792;28;20244;-55
2021/08/06 11:31:01;;;;;;;1.50;0.80;;;21.70;99.90;;;;;;5030350;28;20030;-54
2021/08/06 11:33:27;;;;;;;4.20;1.10;;;21.50;99.90;;;;;;5031573;28;20017;-54
2021/08/06 11:35:53;;;;;;;0.98;0.80;;;21.00;99.90;;;;;;5031546;28;20021;-54
2021/08/06 11:38:23;;;;;;;2.83;1.20;;;20.70;99.90;;;;;;5031440;28;20067;-55
2021/08/06 11:40:51;;;;;;;5.05;1.20;;;20.10;99.90;;;;;;5031642;28;20115;-55
2021/08/06 11:43:22;;;;;;;2.35;1.27;;;19.30;99.90;;;;;;5031597;28;20029;-61
2021/08/06 11:45:50;;;;;;;3.10;1.88;;;18.40;99.90;;;;;;5032877;28;20030;-62
2021/08/06 11:48:17;;;;;;;5.07;1.95;;;17.90;99.90;;;;;;5030384;28;20126;-57
2021/08/06 11:50:55;;;;;;;4.50;2.00;;;17.70;99.90;;;;;;5031417;28;20289;-57
2021/08/06 11:53:28;;;;;;;4.35;1.70;;;17.60;99.90;;;;;;5031358;28;20032;-52
2021/08/06 11:55:56;;;;;;;5.15;2.00;;;17.50;99.90;;;;;;5031255;28;20022;-54
2021/08/06 11:58:33;;;;;;;6.47;1.60;;;17.50;99.90;;;;;;5031434;28;20098;-58
2021/08/06 12:00:59;;;;;;;2.45;1.65;;;17.60;99.90;;;;;;5031327;28;20018;-57
2021/08/06 12:03:25;;;;;;;3.00;2.10;;;17.60;99.90;;;;;;5031521;28;20383;-54
2021/08/06 12:05:52;;;;;;;4.57;2.08;;;17.70;99.90;;;;;;5031415;28;20358;-53
2021/08/06 12:08:24;;;;;;;2.17;1.67;;;17.80;99.90;;;;;;5031215;28;20030;-53
2021/08/06 12:10:55;;;;;;;3.40;1.30;;;18.40;99.90;;;;;;5031144;28;20087;-52
2021/08/06 12:13:24;;;;;;;2.90;1.40;;;19.40;99.90;;;;;;5030917;28;20030;-53
2021/08/06 12:16:23;;;;;;;1.70;1.00;;;20.20;99.90;;;;;;5031219;28;20025;-53
2021/08/06 12:18:51;;;;;;;2.10;1.20;;;20.00;99.90;;;;;;5030411;28;20111;-53
2021/08/06 12:21:25;;;;;;;1.45;1.17;;;20.10;99.90;;;;;;5033636;28;20036;-53
2021/08/06 12:23:56;;;;;;;1.95;1.10;;;19.70;99.90;;;;;;5035465;28;20028;-52
2021/08/06 12:26:49;;;;;;;2.27;1.37;;;19.80;99.90;;;;;;5035102;28;20034;-54
2021/08/06 12:29:23;;;;;;;2.88;1.02;;;21.10;99.90;;;;;;5035339;28;20268;-54
2021/08/06 12:32:03;;;;;;;1.38;0.90;;;22.00;99.90;;;;;;5035106;28;20040;-54
2021/08/06 12:34:36;;;;;;;1.73;0.90;;;22.20;99.90;;;;;;5035196;28;20025;-54
2021/08/06 12:37:03;;;;;;;0.80;0.80;;;22.60;99.90;;;;;;5035235;28;20017;-54
2021/08/06 12:39:32;;;;;;;1.58;0.70;;;22.40;99.90;;;;;;5035158;28;20022;-54
2021/08/06 12:42:19;;;;;;;2.35;0.77;;;22.40;99.90;;;;;;5035162;28;20443;-55
2021/08/06 12:45:07;;;;;;;3.70;0.73;;;23.00;99.90;;;;;;5035216;28;20021;-54
2021/08/06 12:47:44;;;;;;;3.80;0.70;;;23.50;99.90;;;;;;5034928;28;20025;-54
2021/08/06 12:50:25;;;;;;;1.60;0.77;;;22.70;99.90;;;;;;5034915;28;20049;-54
2021/08/06 12:53:04;;;;;;;1.17;0.80;;;22.10;99.90;;;;;;5034699;28;20059;-54
2021/08/06 12:55:31;;;;;;;1.98;0.90;;;21.40;99.90;;;;;;5034820;28;20021;-54